Viking Queen — WDB9919 — position and weather

sailwx.info

Track history (hours):
 
Tides and Currents Weather Stations Pressure Air Temp Water Temp Dewpoint Dewpoint Depression Visibility Wind Speed Wind Dir Waves Ship Positions

Viking Queen

Owner: American River Transportation Company, St Louis, MO. More information available from US FCC via Universal Licensing System and Coast Guard Vessel Documentation Center.

Last reported at 2014-Oct-20 11:25 UTC. Time now 2014-Oct-30 16:45 UTC.
Position N 30°25' W 091°12'.
Warning: this ship's position is 10 days out of date.

Length 55 m; draft 3.2 m.

Type: Towing. MMSI: 366985050.

Date/timePositionNaut miles runAvg speedWind from/ knotsBaromVisibWave heightAir tempDewpointWater temp
2014-Oct-20 11:25N 30°25' W 091°12'6 3.0
2014-Oct-20 09:27N 30°20' W 091°09'4 1.8
2014-Oct-20 07:21N 30°17' W 091°11'4 4.8
2014-Oct-20 06:31N 30°15' W 091°07'4 3.5
2014-Oct-20 05:27N 30°13' W 091°10'15 3.1
2014-Oct-20 00:28N 30°05' W 090°55'32 0.9
2014-Oct-18 14:16N 29°57' W 090°18'4 4.9
2014-Oct-18 13:30N 29°57' W 090°23'9 6.7
2014-Oct-18 12:08N 30°03' W 090°30'5 8.2
2014-Oct-18 11:32N 30°03' W 090°36'7 6.9
2014-Oct-18 10:33N 30°01' W 090°43'6 5.8
2014-Oct-18 09:33N 30°00' W 090°50'6 5.9
2014-Oct-18 08:31N 30°05' W 090°54'3 3.4
2014-Oct-18 07:32N 30°06' W 090°58'  
Track history (hours):
 
Tides and Currents Weather Stations Pressure Air Temp Water Temp Dewpoint Dewpoint Depression Visibility Wind Speed Wind Dir Waves Ship Positions

Viking Queen

Owner: American River Transportation Company, St Louis, MO. More information available from US FCC via Universal Licensing System and Coast Guard Vessel Documentation Center.

Last reported at 2014-Oct-20 11:25 UTC. Time now 2014-Oct-30 16:45 UTC.
Position N 30°25' W 091°12'.
Warning: this ship's position is 10 days out of date.

Length 55 m; draft 3.2 m.

Type: Towing. MMSI: 366985050.

Date/timePositionNaut miles runAvg speedWind from/ knotsBaromVisibWave heightAir tempDewpointWater temp
2014-Oct-20 11:25N 30°25' W 091°12'6 3.0
2014-Oct-20 09:27N 30°20' W 091°09'4 1.8
2014-Oct-20 07:21N 30°17' W 091°11'4 4.8
2014-Oct-20 06:31N 30°15' W 091°07'4 3.5
2014-Oct-20 05:27N 30°13' W 091°10'15 3.1
2014-Oct-20 00:28N 30°05' W 090°55'32 0.9
2014-Oct-18 14:16N 29°57' W 090°18'4 4.9
2014-Oct-18 13:30N 29°57' W 090°23'9 6.7
2014-Oct-18 12:08N 30°03' W 090°30'5 8.2
2014-Oct-18 11:32N 30°03' W 090°36'7 6.9
2014-Oct-18 10:33N 30°01' W 090°43'6 5.8
2014-Oct-18 09:33N 30°00' W 090°50'6 5.9
2014-Oct-18 08:31N 30°05' W 090°54'3 3.4
2014-Oct-18 07:32N 30°06' W 090°58'  

Dump ship's entire track history